createdAt,value
2023-11-24T00:04:07.953Z,3.67
2023-11-24T00:06:37.443Z,6.75
2023-11-24T00:09:04.435Z,5.50
2023-11-24T00:11:35.162Z,6.38
2023-11-24T00:14:09.034Z,5.28
2023-11-24T00:16:40.237Z,3.42
2023-11-24T00:19:08.852Z,8.13
2023-11-24T00:21:42.232Z,5.18
2023-11-24T00:24:10.442Z,3.55
2023-11-24T00:26:38.536Z,3.83
2023-11-24T00:29:06.756Z,4.25
2023-11-24T00:31:34.932Z,5.07
2023-11-24T00:34:03.218Z,5.20
2023-11-24T00:36:32.082Z,5.93
2023-11-24T00:39:01.485Z,6.78
2023-11-24T00:41:30.137Z,4.75
2023-11-24T00:43:58.292Z,4.85
2023-11-24T00:46:26.315Z,5.03
2023-11-24T00:48:54.351Z,5.82
2023-11-24T00:51:22.473Z,5.63
2023-11-24T00:53:50.726Z,3.65
2023-11-24T00:56:20.142Z,3.78
2023-11-24T00:58:49.741Z,5.82
2023-11-24T01:01:18.008Z,5.65
2023-11-24T01:03:46.558Z,4.55
2023-11-24T01:06:15.019Z,6.35
2023-11-24T01:08:45.894Z,3.95
2023-11-24T01:11:13.829Z,6.13
2023-11-24T01:13:47.166Z,6.15
2023-11-24T01:16:15.890Z,5.70
2023-11-24T01:18:43.966Z,6.30
2023-11-24T01:21:13.022Z,4.55
2023-11-24T01:23:43.205Z,5.82
2023-11-24T01:26:13.031Z,8.25
2023-11-24T01:28:41.413Z,3.22
2023-11-24T01:31:10.731Z,7.32
2023-11-24T01:33:39.669Z,3.30
2023-11-24T01:36:10.950Z,4.93
2023-11-24T01:38:41.734Z,3.55
2023-11-24T01:41:10.198Z,3.60
2023-11-24T01:43:39.014Z,3.13
2023-11-24T01:46:11.178Z,5.35
2023-11-24T01:48:39.292Z,5.28
2023-11-24T01:51:08.161Z,3.83
2023-11-24T01:53:36.349Z,5.45
2023-11-24T01:56:04.558Z,4.30
2023-11-24T01:58:32.736Z,6.00
2023-11-24T02:01:00.807Z,3.95
2023-11-24T02:03:30.327Z,3.92
2023-11-24T02:05:58.465Z,6.18
2023-11-24T02:08:26.579Z,6.57
2023-11-24T02:10:54.925Z,4.30
2023-11-24T02:13:26.803Z,5.82
2023-11-24T02:15:57.761Z,4.45
2023-11-24T02:18:26.630Z,4.00
2023-11-24T02:20:56.002Z,6.20
2023-11-24T02:23:25.711Z,4.35
2023-11-24T02:25:53.758Z,5.80
2023-11-24T02:28:21.716Z,7.90
2023-11-24T02:30:49.711Z,5.53
2023-11-24T02:33:20.065Z,7.28
2023-11-24T02:35:48.596Z,6.32
2023-11-24T02:38:16.682Z,5.20
2023-11-24T02:40:46.059Z,3.17
2023-11-24T02:43:13.998Z,3.13
2023-11-24T02:45:42.536Z,4.47
2023-11-24T02:48:11.962Z,5.05
2023-11-24T02:50:40.100Z,5.85
2023-11-24T02:53:08.089Z,2.55
2023-11-24T02:55:36.072Z,2.83
2023-11-24T02:58:05.670Z,7.40
2023-11-24T03:00:33.979Z,3.88
2023-11-24T03:03:03.341Z,3.15
2023-11-24T03:05:31.788Z,3.47
2023-11-24T03:07:59.780Z,3.75
2023-11-24T03:10:28.158Z,5.68
2023-11-24T03:12:56.137Z,5.88
2023-11-24T03:15:26.408Z,4.55
2023-11-24T03:17:54.449Z,4.72
2023-11-24T03:20:23.495Z,5.53
2023-11-24T03:22:51.452Z,5.45
2023-11-24T03:25:19.461Z,4.35
2023-11-24T03:27:47.480Z,3.63
2023-11-24T03:30:15.829Z,4.20
2023-11-24T03:32:49.559Z,5.47
2023-11-24T03:35:18.141Z,3.25
2023-11-24T03:37:46.116Z,3.33
2023-11-24T03:40:14.240Z,4.55
2023-11-24T03:42:42.820Z,6.38
2023-11-24T03:45:12.297Z,3.08
2023-11-24T03:47:40.928Z,3.75
2023-11-24T03:50:11.632Z,3.50
2023-11-24T03:52:39.724Z,3.20
2023-11-24T03:55:12.565Z,3.13
2023-11-24T03:57:45.338Z,4.00
2023-11-24T04:00:14.694Z,4.97
2023-11-24T04:02:43.800Z,3.92
2023-11-24T04:05:14.580Z,4.13
2023-11-24T04:07:42.664Z,2.92
2023-11-24T04:10:13.550Z,4.03
2023-11-24T04:12:51.003Z,4.38
2023-11-24T04:15:19.009Z,3.75
2023-11-24T04:17:47.979Z,4.25
2023-11-24T04:20:17.496Z,4.82
2023-11-24T04:22:45.557Z,2.60
2023-11-24T04:25:13.521Z,5.88
2023-11-24T04:27:41.501Z,5.40
2023-11-24T04:30:10.956Z,3.03
2023-11-24T04:32:42.670Z,5.25
2023-11-24T04:35:13.834Z,4.43
2023-11-24T04:37:43.185Z,5.13
2023-11-24T04:40:13.776Z,11.13
2023-11-24T04:42:41.723Z,4.32
2023-11-24T04:45:12.287Z,4.05
2023-11-24T04:47:43.314Z,4.10
2023-11-24T04:50:11.841Z,2.97
2023-11-24T04:52:39.883Z,5.53
2023-11-24T04:55:10.222Z,4.75
2023-11-24T04:57:38.339Z,6.10
2023-11-24T05:00:10.100Z,3.58
2023-11-24T05:02:38.136Z,2.97
2023-11-24T05:05:07.346Z,3.97
2023-11-24T05:07:35.573Z,5.95
2023-11-24T05:10:04.610Z,3.05
2023-11-24T05:12:34.201Z,2.08
2023-11-24T05:15:04.446Z,5.57
2023-11-24T05:17:32.484Z,6.25
2023-11-24T05:20:04.363Z,3.03
2023-11-24T05:22:32.376Z,4.03
2023-11-24T05:25:00.552Z,2.20
2023-11-24T05:27:28.596Z,4.40
2023-11-24T05:29:57.973Z,3.85
2023-11-24T05:32:25.950Z,3.17
2023-11-24T05:34:54.979Z,4.45
2023-11-24T05:37:22.985Z,4.75
2023-11-24T05:39:51.141Z,2.90
2023-11-24T05:42:19.185Z,3.13
2023-11-24T05:44:47.201Z,3.47
2023-11-24T05:47:16.538Z,3.17
2023-11-24T05:49:45.522Z,3.38
2023-11-24T05:52:16.771Z,2.65
2023-11-24T05:54:46.386Z,4.20
2023-11-24T05:57:14.499Z,2.50
2023-11-24T05:59:42.423Z,2.28
2023-11-24T06:02:11.093Z,2.88
2023-11-24T06:04:43.476Z,5.18
2023-11-24T06:07:11.641Z,3.25
2023-11-24T06:09:39.578Z,6.88
2023-11-24T06:12:10.414Z,3.95
2023-11-24T06:14:38.926Z,1.58
2023-11-24T06:17:07.861Z,4.55
2023-11-24T06:19:35.862Z,6.53
2023-11-24T06:22:05.700Z,2.00
2023-11-24T06:24:33.734Z,3.65
2023-11-24T06:27:01.701Z,5.70
2023-11-24T06:29:29.686Z,3.22
2023-11-24T06:31:57.717Z,2.67
2023-11-24T06:34:26.137Z,5.05
2023-11-24T06:36:54.250Z,5.82
2023-11-24T06:39:23.617Z,3.15
2023-11-24T06:41:51.637Z,3.13
2023-11-24T06:44:20.114Z,3.78
2023-11-24T06:46:48.257Z,4.55
2023-11-24T06:49:19.265Z,3.83
2023-11-24T06:51:49.614Z,5.10
2023-11-24T06:54:18.853Z,2.75
2023-11-24T06:56:48.276Z,4.05
2023-11-24T06:59:19.406Z,3.42
2023-11-24T07:01:47.542Z,2.75
2023-11-24T07:04:19.958Z,1.40
2023-11-24T07:06:48.124Z,5.10
2023-11-24T07:09:18.619Z,2.10
2023-11-24T07:11:49.497Z,1.70
2023-11-24T07:14:17.594Z,3.45
2023-11-24T07:16:45.569Z,4.72
2023-11-24T07:19:13.603Z,3.97
2023-11-24T07:21:41.696Z,3.25
2023-11-24T07:24:10.050Z,2.15
2023-11-24T07:26:38.072Z,1.67
2023-11-24T07:29:10.151Z,3.40
2023-11-24T07:31:38.146Z,4.68
2023-11-24T07:34:06.332Z,1.83
2023-11-24T07:36:36.936Z,1.45
2023-11-24T07:39:05.556Z,3.83
2023-11-24T07:41:33.694Z,1.88
2023-11-24T07:44:08.506Z,0.80
2023-11-24T07:46:37.995Z,1.13
2023-11-24T07:49:06.258Z,2.45
2023-11-24T07:51:34.229Z,0.80
2023-11-24T07:54:04.212Z,1.48
2023-11-24T07:56:33.005Z,2.13
2023-11-24T07:59:01.085Z,1.88
2023-11-24T08:01:31.763Z,2.25
2023-11-24T08:04:01.562Z,2.13
2023-11-24T08:06:30.874Z,1.63
2023-11-24T08:09:04.566Z,2.60
2023-11-24T08:11:33.241Z,1.92
2023-11-24T08:14:01.709Z,2.17
2023-11-24T08:16:29.843Z,3.58
2023-11-24T08:18:57.985Z,1.35
2023-11-24T08:21:27.359Z,2.67
2023-11-24T08:23:55.714Z,2.60
2023-11-24T08:26:23.749Z,3.97
2023-11-24T08:28:51.841Z,7.03
2023-11-24T08:31:20.682Z,1.38
2023-11-24T08:33:50.105Z,2.80
2023-11-24T08:36:18.200Z,5.55
2023-11-24T08:38:47.514Z,3.72
2023-11-24T08:41:26.825Z,2.70
2023-11-24T08:44:05.855Z,4.03
2023-11-24T08:46:34.179Z,1.67
2023-11-24T08:49:03.213Z,1.90
2023-11-24T08:51:31.271Z,3.08
2023-11-24T08:54:00.572Z,3.20
2023-11-24T08:56:29.925Z,1.90
2023-11-24T08:58:57.867Z,3.78
2023-11-24T09:01:25.927Z,0.63
2023-11-24T09:03:55.602Z,2.85
2023-11-24T09:06:28.117Z,2.30
2023-11-24T09:08:57.870Z,3.97
2023-11-24T09:11:27.841Z,2.15
2023-11-24T09:13:55.926Z,2.40
2023-11-24T09:16:24.111Z,2.20
2023-11-24T09:18:52.238Z,3.00
2023-11-24T09:21:20.241Z,4.45
2023-11-24T09:23:48.668Z,1.88
2023-11-24T09:26:16.646Z,1.83
2023-11-24T09:28:45.922Z,4.18
2023-11-24T09:33:45.166Z,2.47
2023-11-24T09:36:14.065Z,1.90
2023-11-24T09:38:42.428Z,1.67
2023-11-24T09:41:12.760Z,2.00
2023-11-24T09:43:41.084Z,3.33
2023-11-24T09:46:12.038Z,1.88
2023-11-24T09:48:43.264Z,1.98
2023-11-24T09:51:18.121Z,1.42
2023-11-24T09:56:15.014Z,3.60
2023-11-24T09:58:43.556Z,3.67
2023-11-24T10:01:17.618Z,3.40
2023-11-24T10:03:51.746Z,0.98
2023-11-24T10:06:20.195Z,3.25
2023-11-24T10:08:48.795Z,1.75
2023-11-24T10:11:24.117Z,1.88
2023-11-24T10:13:52.335Z,2.00
2023-11-24T10:16:23.356Z,2.30
2023-11-24T10:18:52.673Z,1.73
2023-11-24T10:21:29.916Z,1.75
2023-11-24T10:24:02.191Z,2.78
2023-11-24T10:26:30.773Z,1.33
2023-11-24T10:28:59.361Z,1.45
2023-11-24T10:31:31.927Z,2.78
2023-11-24T10:34:01.373Z,2.58
2023-11-24T10:36:32.596Z,1.73
2023-11-24T10:39:05.630Z,3.03
2023-11-24T10:41:40.392Z,2.42
2023-11-24T10:44:12.483Z,1.63
2023-11-24T10:46:47.083Z,2.58
2023-11-24T10:49:22.354Z,4.03
2023-11-24T10:52:00.145Z,3.75
2023-11-24T10:54:35.189Z,2.97
2023-11-24T10:57:07.363Z,3.20
2023-11-24T11:02:10.553Z,2.65
2023-11-24T11:04:45.430Z,3.90
2023-11-24T11:07:27.746Z,4.03
2023-11-24T11:10:00.061Z,3.70
2023-11-24T11:12:42.299Z,14.32
2023-11-24T11:15:12.077Z,10.57
2023-11-24T11:17:42.642Z,6.25
2023-11-24T11:20:16.362Z,11.73
2023-11-24T11:22:45.127Z,3.95
2023-11-24T11:25:39.759Z,10.40
2023-11-24T11:28:36.632Z,5.65
2023-11-24T11:31:23.650Z,4.25
2023-11-24T11:33:53.991Z,6.57
2023-11-24T11:36:26.859Z,5.65
2023-11-24T11:38:55.778Z,6.75
2023-11-24T11:41:42.253Z,7.82
2023-11-24T11:44:25.952Z,5.80
2023-11-24T11:47:14.349Z,6.30
2023-11-24T11:49:44.831Z,6.47
2023-11-24T11:52:13.486Z,8.68
2023-11-24T11:54:44.704Z,6.28
2023-11-24T11:57:13.947Z,4.95
2023-11-24T12:02:19.474Z,3.72
2023-11-24T12:04:52.401Z,11.18
2023-11-24T12:07:23.825Z,6.15
2023-11-24T12:09:52.479Z,6.82
2023-11-24T12:12:24.067Z,8.20
2023-11-24T12:14:55.411Z,6.38
2023-11-24T12:17:25.054Z,4.95
2023-11-24T12:19:55.668Z,5.50
2023-11-24T12:22:29.500Z,7.22
2023-11-24T12:24:57.879Z,5.90
2023-11-24T12:27:28.495Z,4.72
2023-11-24T12:29:56.574Z,3.53
2023-11-24T12:32:27.830Z,6.68
2023-11-24T12:35:01.065Z,3.90
2023-11-24T12:37:30.709Z,7.35
2023-11-24T12:39:58.887Z,6.75
2023-11-24T12:42:30.745Z,6.05
2023-11-24T12:45:00.338Z,5.05
2023-11-24T12:50:03.093Z,5.90
2023-11-24T12:52:33.000Z,9.00
2023-11-24T12:55:02.900Z,7.90
2023-11-24T12:57:31.036Z,5.55
2023-11-24T13:00:06.909Z,3.10
2023-11-24T13:02:38.958Z,4.80
2023-11-24T13:05:09.959Z,7.47
2023-11-24T13:07:38.243Z,4.15
2023-11-24T13:10:11.254Z,4.05
2023-11-24T13:12:40.376Z,5.43
2023-11-24T13:15:10.569Z,6.10
2023-11-24T13:17:39.516Z,3.88
2023-11-24T13:20:12.317Z,6.78
2023-11-24T13:22:40.966Z,4.13
2023-11-24T13:25:10.736Z,2.97
2023-11-24T13:27:39.671Z,3.80
2023-11-24T13:30:12.848Z,7.95
2023-11-24T13:32:41.915Z,4.32
2023-11-24T13:35:15.232Z,4.80
2023-11-24T13:37:44.237Z,6.75
2023-11-24T13:40:14.096Z,6.07
2023-11-24T13:42:43.031Z,5.75
2023-11-24T13:45:13.796Z,4.70
2023-11-24T13:47:42.832Z,3.83
2023-11-24T13:50:12.962Z,6.00
2023-11-24T13:52:42.905Z,4.93
2023-11-24T13:55:13.576Z,3.75
2023-11-24T13:57:41.850Z,3.17
2023-11-24T14:00:12.545Z,5.45
2023-11-24T14:02:41.491Z,5.95
2023-11-24T14:05:15.207Z,3.85
2023-11-24T14:07:45.689Z,4.88
2023-11-24T14:10:17.366Z,6.05
2023-11-24T14:12:47.542Z,5.70
2023-11-24T14:15:16.028Z,3.47
2023-11-24T14:17:44.031Z,5.30
2023-11-24T14:20:14.643Z,3.10
2023-11-24T14:22:43.249Z,8.90
2023-11-24T14:25:12.351Z,5.47
2023-11-24T14:27:41.251Z,6.45
2023-11-24T14:30:10.433Z,7.53
2023-11-24T14:32:38.573Z,4.30
2023-11-24T14:35:08.029Z,5.00
2023-11-24T14:37:39.748Z,5.75
2023-11-24T14:40:20.000Z,7.18
2023-11-24T14:42:50.768Z,6.85
2023-11-24T14:45:21.387Z,4.38
2023-11-24T14:47:50.799Z,6.50
2023-11-24T14:50:20.539Z,6.70
2023-11-24T14:52:49.915Z,9.35
2023-11-24T14:55:18.271Z,8.70
2023-11-24T14:57:47.397Z,51.20
2023-11-24T15:00:30.502Z,119.80
2023-11-24T15:03:02.093Z,111.88
2023-11-24T15:05:34.418Z,107.90
2023-11-24T15:08:11.396Z,88.20
2023-11-24T15:10:43.218Z,65.00
2023-11-24T15:13:11.438Z,65.72
2023-11-24T15:15:41.033Z,73.90
2023-11-24T15:18:12.112Z,61.05
2023-11-24T15:20:41.282Z,60.42
2023-11-24T15:23:12.690Z,63.17
2023-11-24T15:25:49.011Z,54.63
2023-11-24T15:28:22.253Z,53.70
2023-11-24T15:30:50.814Z,53.25
2023-11-24T15:33:19.964Z,64.25
2023-11-24T15:35:49.834Z,50.75
2023-11-24T15:38:21.204Z,53.83
2023-11-24T15:40:51.849Z,54.70
2023-11-24T15:43:20.528Z,52.15
2023-11-24T15:45:54.769Z,53.05
2023-11-24T15:48:22.882Z,51.10
2023-11-24T15:50:50.932Z,48.72
2023-11-24T15:53:22.998Z,53.70
2023-11-24T15:58:26.184Z,48.45
2023-11-24T16:00:57.557Z,49.92
2023-11-24T16:03:26.019Z,46.28
2023-11-24T16:05:56.240Z,42.03
2023-11-24T16:08:33.827Z,47.90
2023-11-24T16:11:10.836Z,52.75
2023-11-24T16:13:42.371Z,43.25
2023-11-24T16:16:10.869Z,44.28
2023-11-24T16:18:41.635Z,39.17
2023-11-24T16:21:09.624Z,41.15
2023-11-24T16:23:39.055Z,36.20
2023-11-24T16:26:07.156Z,42.05
2023-11-24T16:28:35.288Z,38.45
2023-11-24T16:31:06.395Z,40.05
2023-11-24T16:33:35.927Z,33.58
2023-11-24T16:36:04.959Z,33.75
2023-11-24T16:38:33.290Z,40.60
2023-11-24T16:41:05.623Z,35.45
2023-11-24T16:43:33.698Z,35.38
2023-11-24T16:46:08.198Z,30.30
2023-11-24T16:48:36.401Z,34.33
2023-11-24T16:51:04.812Z,36.30
2023-11-24T16:53:32.869Z,28.23
2023-11-24T16:56:05.030Z,27.15
2023-11-24T16:58:36.249Z,27.10
2023-11-24T17:01:04.289Z,31.80
2023-11-24T17:03:32.667Z,31.60
2023-11-24T17:06:00.712Z,25.52
2023-11-24T17:08:28.748Z,27.98
2023-11-24T17:10:56.698Z,25.83
2023-11-24T17:13:26.202Z,25.13
2023-11-24T17:15:55.080Z,26.13
2023-11-24T17:18:23.130Z,23.67
2023-11-24T17:20:51.351Z,24.45
2023-11-24T17:23:19.299Z,24.08
2023-11-24T17:25:49.320Z,25.55
2023-11-24T17:28:19.013Z,20.63
2023-11-24T17:30:48.477Z,24.73
2023-11-24T17:33:16.532Z,24.83
2023-11-24T17:35:45.695Z,21.27
2023-11-24T17:38:16.253Z,21.30
2023-11-24T17:40:45.212Z,22.50
2023-11-24T17:43:13.256Z,24.38
2023-11-24T17:45:43.505Z,20.48
2023-11-24T17:48:13.053Z,21.98
2023-11-24T17:50:41.002Z,22.58
2023-11-24T17:53:09.974Z,16.88
2023-11-24T17:55:38.011Z,25.08
2023-11-24T17:58:06.006Z,19.33
2023-11-24T18:00:34.076Z,20.58
2023-11-24T18:03:02.143Z,19.65
2023-11-24T18:05:31.621Z,18.33
2023-11-24T18:08:03.662Z,18.60
2023-11-24T18:10:32.019Z,18.63
2023-11-24T18:13:00.346Z,17.52
2023-11-24T18:15:28.457Z,21.83
2023-11-24T18:17:56.707Z,16.65
2023-11-24T18:20:26.160Z,17.17
2023-11-24T18:22:56.096Z,15.55
2023-11-24T18:25:26.700Z,16.27
2023-11-24T18:27:54.719Z,14.45
2023-11-24T18:30:22.826Z,14.90
2023-11-24T18:32:50.949Z,16.02
2023-11-24T18:35:20.024Z,17.38
2023-11-24T18:37:48.009Z,13.63
2023-11-24T18:40:18.196Z,16.00
2023-11-24T18:42:46.872Z,16.50
2023-11-24T18:45:15.398Z,12.52
2023-11-24T18:47:43.407Z,12.50
2023-11-24T18:50:12.262Z,15.32
2023-11-24T18:52:46.429Z,14.25
2023-11-24T18:55:14.599Z,16.17
2023-11-24T18:57:46.862Z,14.07
2023-11-24T19:00:19.891Z,14.65
2023-11-24T19:02:49.096Z,12.68
2023-11-24T19:05:20.432Z,12.10
2023-11-24T19:07:48.958Z,11.20
2023-11-24T19:10:19.623Z,10.40
2023-11-24T19:12:52.360Z,12.57
2023-11-24T19:15:21.187Z,11.02
2023-11-24T19:17:49.486Z,10.82
2023-11-24T19:20:18.943Z,11.98
2023-11-24T19:22:47.342Z,10.80
2023-11-24T19:25:15.641Z,9.13
2023-11-24T19:27:43.684Z,9.25
2023-11-24T19:30:13.927Z,11.68
2023-11-24T19:32:42.086Z,13.50
2023-11-24T19:35:12.359Z,11.88
2023-11-24T19:37:42.131Z,9.57
2023-11-24T19:40:11.292Z,9.30
2023-11-24T19:42:39.309Z,9.63
2023-11-24T19:45:10.306Z,10.23
2023-11-24T19:47:39.793Z,9.73
2023-11-24T19:50:09.078Z,8.38
2023-11-24T19:52:37.131Z,8.43
2023-11-24T19:55:05.718Z,7.88
2023-11-24T19:57:34.756Z,9.93
2023-11-24T20:00:08.774Z,11.80
2023-11-24T20:02:41.023Z,7.22
2023-11-24T20:05:09.926Z,8.60
2023-11-24T20:07:37.921Z,9.55
2023-11-24T20:10:07.963Z,6.25
2023-11-24T20:12:36.048Z,9.73
2023-11-24T20:15:04.189Z,10.48
2023-11-24T20:17:35.114Z,10.15
2023-11-24T20:20:09.824Z,10.88
2023-11-24T20:22:40.788Z,8.80
2023-11-24T20:25:10.246Z,8.43
2023-11-24T20:27:40.957Z,7.13
2023-11-24T20:30:12.948Z,7.70
2023-11-24T20:32:43.239Z,7.65
2023-11-24T20:35:13.251Z,7.53
2023-11-24T20:37:42.210Z,7.05
2023-11-24T20:40:11.234Z,6.18
2023-11-24T20:42:40.156Z,7.38
2023-11-24T20:45:10.068Z,8.55
2023-11-24T20:47:39.322Z,6.15
2023-11-24T20:50:12.609Z,7.20
2023-11-24T20:52:45.028Z,7.70
2023-11-24T20:55:14.275Z,4.63
2023-11-24T20:57:42.446Z,5.95
2023-11-24T21:00:12.508Z,7.95
2023-11-24T21:02:41.627Z,6.53
2023-11-24T21:05:10.451Z,5.15
2023-11-24T21:07:40.756Z,6.10
2023-11-24T21:10:12.633Z,6.55
2023-11-24T21:12:43.015Z,6.80
2023-11-24T21:15:12.131Z,6.68
2023-11-24T21:17:40.490Z,7.00
2023-11-24T21:20:11.186Z,8.38
2023-11-24T21:22:40.845Z,8.07
2023-11-24T21:25:09.421Z,5.28
2023-11-24T21:27:37.428Z,9.25
2023-11-24T21:30:07.657Z,7.03
2023-11-24T21:32:38.519Z,7.13
2023-11-24T21:35:07.662Z,5.22
2023-11-24T21:37:35.769Z,4.60
2023-11-24T21:40:11.996Z,5.95
2023-11-24T21:42:39.969Z,7.43
2023-11-24T21:45:10.958Z,5.72
2023-11-24T21:47:39.075Z,6.57
2023-11-24T21:50:08.148Z,6.00
2023-11-24T21:52:36.861Z,5.97
2023-11-24T21:55:07.962Z,7.65
2023-11-24T21:57:36.107Z,6.85
2023-11-24T22:00:06.524Z,5.93
2023-11-24T22:02:39.336Z,6.28
2023-11-24T22:05:10.598Z,6.63
2023-11-24T22:07:39.038Z,9.23
2023-11-24T22:10:10.613Z,4.60
2023-11-24T22:12:39.318Z,5.57
2023-11-24T22:15:10.804Z,5.95
2023-11-24T22:17:38.900Z,5.05
2023-11-24T22:20:11.902Z,6.43
2023-11-24T22:22:40.905Z,5.25
2023-11-24T22:25:12.058Z,4.88
2023-11-24T22:27:40.133Z,6.65
2023-11-24T22:30:09.314Z,5.22
2023-11-24T22:32:37.419Z,5.15
2023-11-24T22:35:08.032Z,5.65
2023-11-24T22:37:36.538Z,5.40
2023-11-24T22:40:06.643Z,5.97
2023-11-24T22:42:43.286Z,5.60
2023-11-24T22:45:12.661Z,6.87
2023-11-24T22:47:42.925Z,3.97
2023-11-24T22:50:12.139Z,4.63
2023-11-24T22:52:40.357Z,4.90
2023-11-24T22:55:09.145Z,7.57
2023-11-24T22:57:37.946Z,8.90
2023-11-24T23:00:30.126Z,9.45
2023-11-24T23:02:58.503Z,5.78
2023-11-24T23:05:27.127Z,6.28
2023-11-24T23:07:55.225Z,7.03
2023-11-24T23:10:23.517Z,4.20
2023-11-24T23:12:51.492Z,6.55
2023-11-24T23:15:20.849Z,3.72
2023-11-24T23:17:48.987Z,4.30
2023-11-24T23:20:17.020Z,5.60
2023-11-24T23:22:45.090Z,5.90
2023-11-24T23:25:13.206Z,7.65
2023-11-24T23:27:41.669Z,23.85
2023-11-24T23:30:13.600Z,20.50
2023-11-24T23:32:45.092Z,19.08
2023-11-24T23:35:13.468Z,19.80
2023-11-24T23:37:45.113Z,21.00
2023-11-24T23:40:15.214Z,22.92
2023-11-24T23:42:45.668Z,20.40
2023-11-24T23:45:15.163Z,19.10
2023-11-24T23:47:44.941Z,21.80
2023-11-24T23:50:14.023Z,18.35
2023-11-24T23:52:43.195Z,18.80
2023-11-24T23:55:11.273Z,18.38
2023-11-24T23:57:39.268Z,17.05
